createdAt,value
2018-06-22T00:01:04.663Z,15.07
2018-06-22T00:04:07.367Z,14.92
2018-06-22T00:07:09.416Z,15.08
2018-06-22T00:10:11.470Z,15.17
2018-06-22T00:13:13.530Z,15.15
2018-06-22T00:16:15.572Z,15.04
2018-06-22T00:19:17.674Z,15.05
2018-06-22T00:22:19.756Z,14.78
2018-06-22T00:25:21.770Z,14.66
2018-06-22T00:28:23.867Z,14.71
2018-06-22T00:31:26.228Z,14.72
2018-06-22T00:34:28.326Z,14.58
2018-06-22T00:37:30.413Z,14.46
2018-06-22T00:40:32.440Z,14.36
2018-06-22T00:43:34.515Z,14.23
2018-06-22T00:46:36.459Z,14.17
2018-06-22T00:49:38.443Z,14.30
2018-06-22T00:52:40.545Z,14.39
2018-06-22T00:55:42.594Z,14.23
2018-06-22T00:58:44.565Z,14.11
2018-06-22T01:01:46.624Z,14.09
2018-06-22T01:04:48.742Z,13.97
2018-06-22T01:07:50.753Z,13.88
2018-06-22T01:10:53.965Z,13.82
2018-06-22T01:13:56.047Z,13.78
2018-06-22T01:16:58.074Z,13.81
2018-06-22T01:20:00.195Z,13.89
2018-06-22T01:23:02.266Z,14.05
2018-06-22T01:26:04.670Z,14.08
2018-06-22T01:29:12.334Z,13.95
2018-06-22T01:32:14.235Z,13.81
2018-06-22T01:35:16.257Z,13.82
2018-06-22T01:38:18.305Z,13.70
2018-06-22T01:41:20.394Z,13.75
2018-06-22T01:44:22.438Z,13.59
2018-06-22T01:47:24.731Z,13.42
2018-06-22T01:50:26.802Z,13.41
2018-06-22T01:53:28.860Z,13.20
2018-06-22T01:56:30.952Z,13.42
2018-06-22T01:59:32.918Z,13.36
2018-06-22T02:02:35.094Z,13.30
2018-06-22T02:05:37.153Z,13.10
2018-06-22T02:08:39.193Z,13.01
2018-06-22T02:11:41.311Z,12.81
2018-06-22T02:14:43.539Z,12.70
2018-06-22T02:17:45.622Z,12.67
2018-06-22T02:20:47.716Z,12.59
2018-06-22T02:23:49.895Z,12.57
2018-06-22T02:26:52.189Z,12.58
2018-06-22T02:29:55.432Z,12.49
2018-06-22T02:32:57.494Z,12.51
2018-06-22T02:35:59.538Z,12.65
2018-06-22T02:39:01.563Z,12.77
2018-06-22T02:42:03.632Z,12.77
2018-06-22T02:45:06.571Z,12.72
2018-06-22T02:48:08.643Z,12.67
2018-06-22T02:51:10.756Z,12.45
2018-06-22T02:54:12.805Z,12.32
2018-06-22T02:57:14.974Z,12.30
2018-06-22T03:00:17.069Z,12.33
2018-06-22T03:03:19.288Z,12.16
2018-06-22T03:06:21.403Z,12.14
2018-06-22T03:09:24.572Z,12.10
2018-06-22T03:12:26.643Z,12.25
2018-06-22T03:15:28.630Z,12.30
2018-06-22T03:18:30.679Z,12.27
2018-06-22T03:21:32.829Z,12.29
2018-06-22T03:24:34.803Z,12.21
2018-06-22T03:27:36.882Z,12.15
2018-06-22T03:30:38.974Z,12.13
2018-06-22T03:33:41.040Z,12.05
2018-06-22T03:36:43.101Z,12.11
2018-06-22T03:39:45.176Z,12.02
2018-06-22T03:42:47.208Z,11.99
2018-06-22T03:45:49.330Z,12.05
2018-06-22T03:48:51.351Z,12.10
2018-06-22T03:51:53.456Z,12.16
2018-06-22T03:54:55.519Z,12.24
2018-06-22T03:57:57.518Z,12.30
2018-06-22T04:01:01.074Z,12.46
2018-06-22T04:04:03.119Z,12.68
2018-06-22T04:07:05.180Z,12.65
2018-06-22T04:10:07.280Z,12.54
2018-06-22T04:13:09.336Z,12.53
2018-06-22T04:16:11.421Z,12.44
2018-06-22T04:19:13.515Z,12.49
2018-06-22T04:22:15.555Z,12.12
2018-06-22T04:25:18.908Z,12.13
2018-06-22T04:28:21.036Z,12.18
2018-06-22T04:31:23.088Z,12.17
2018-06-22T04:34:26.099Z,12.28
2018-06-22T04:37:28.139Z,12.23
2018-06-22T04:40:30.845Z,12.39
2018-06-22T04:43:33.100Z,12.30
2018-06-22T04:46:35.448Z,12.39
2018-06-22T04:49:37.407Z,12.56
2018-06-22T04:52:39.521Z,12.74
2018-06-22T04:55:41.598Z,12.84
2018-06-22T04:58:43.666Z,13.07
2018-06-22T05:01:51.677Z,13.06
2018-06-22T05:04:53.748Z,13.13
2018-06-22T05:07:55.812Z,13.29
2018-06-22T05:10:57.982Z,13.44
2018-06-22T05:14:01.227Z,13.43
2018-06-22T05:17:03.275Z,13.24
2018-06-22T05:20:05.432Z,13.31
2018-06-22T05:23:07.756Z,13.33
2018-06-22T05:26:09.701Z,13.44
2018-06-22T05:29:11.832Z,13.56
2018-06-22T05:32:13.882Z,13.62
2018-06-22T05:35:15.862Z,13.63
2018-06-22T05:38:18.104Z,13.70
2018-06-22T05:41:20.035Z,13.64
2018-06-22T05:44:22.265Z,13.70
2018-06-22T05:47:24.402Z,13.78
2018-06-22T05:50:26.558Z,13.93
2018-06-22T05:53:28.856Z,14.13
2018-06-22T05:56:31.046Z,14.13
2018-06-22T05:59:33.143Z,14.01
2018-06-22T06:02:35.184Z,14.06
2018-06-22T06:05:37.247Z,14.12
2018-06-22T06:08:39.437Z,14.08
2018-06-22T06:11:41.472Z,13.96
2018-06-22T06:14:43.612Z,13.77
2018-06-22T06:17:46.721Z,13.65
2018-06-22T06:20:48.837Z,13.94
2018-06-22T06:23:50.884Z,14.01
2018-06-22T06:26:52.932Z,13.99
2018-06-22T06:29:54.935Z,13.93
2018-06-22T06:32:57.022Z,14.18
2018-06-22T06:36:00.356Z,14.48
2018-06-22T06:39:02.662Z,14.41
2018-06-22T06:42:08.787Z,14.46
2018-06-22T06:45:11.881Z,14.59
2018-06-22T06:48:13.912Z,14.60
2018-06-22T06:51:16.149Z,14.65
2018-06-22T06:54:18.207Z,14.66
2018-06-22T06:57:20.208Z,14.89
2018-06-22T07:00:22.303Z,15.03
2018-06-22T07:03:24.363Z,14.97
2018-06-22T07:06:26.409Z,15.05
2018-06-22T07:09:28.505Z,15.08
2018-06-22T07:12:30.740Z,15.32
2018-06-22T07:15:38.936Z,15.56
2018-06-22T07:18:41.067Z,15.60
2018-06-22T07:21:43.099Z,15.59
2018-06-22T07:24:45.173Z,15.43
2018-06-22T07:27:47.259Z,15.54
2018-06-22T07:30:49.448Z,15.43
2018-06-22T07:33:51.504Z,15.28
2018-06-22T07:36:57.720Z,15.09
2018-06-22T07:40:00.836Z,15.07
2018-06-22T07:43:03.111Z,15.09
2018-06-22T07:46:05.203Z,14.94
2018-06-22T07:49:07.296Z,15.19
2018-06-22T07:52:09.457Z,15.53
2018-06-22T07:55:11.580Z,15.56
2018-06-22T07:58:13.492Z,15.68
2018-06-22T08:01:15.544Z,15.66
2018-06-22T08:04:17.632Z,15.69
2018-06-22T08:07:20.065Z,15.79
2018-06-22T08:10:22.156Z,15.85
2018-06-22T08:13:24.238Z,15.79
2018-06-22T08:16:26.446Z,15.77
2018-06-22T08:19:28.514Z,15.65
2018-06-22T08:22:31.324Z,15.40
2018-06-22T08:25:33.268Z,15.55
2018-06-22T08:28:35.423Z,15.61
2018-06-22T08:31:37.510Z,15.65
2018-06-22T08:34:39.747Z,15.94
2018-06-22T08:37:41.719Z,16.09
2018-06-22T08:40:43.811Z,16.72
2018-06-22T08:43:45.952Z,16.96
2018-06-22T08:46:48.016Z,16.87
2018-06-22T08:49:50.111Z,16.48
2018-06-22T08:52:52.248Z,16.43
2018-06-22T08:55:54.319Z,16.56
2018-06-22T08:58:56.252Z,16.23
2018-06-22T09:01:58.467Z,16.45
2018-06-22T09:05:01.935Z,16.62
2018-06-22T09:08:04.417Z,16.91
2018-06-22T09:11:06.550Z,16.99
2018-06-22T09:14:08.560Z,16.79
2018-06-22T09:17:10.708Z,16.29
2018-06-22T09:20:13.852Z,16.28
2018-06-22T09:23:15.852Z,16.44
2018-06-22T09:26:17.811Z,16.58
2018-06-22T09:29:19.907Z,16.55
2018-06-22T09:32:21.998Z,16.47
2018-06-22T09:35:23.968Z,16.70
2018-06-22T09:38:26.005Z,16.95
2018-06-22T09:41:27.986Z,16.74
2018-06-22T09:44:36.822Z,16.90
2018-06-22T09:47:40.133Z,17.00
2018-06-22T09:50:42.823Z,16.82
2018-06-22T09:53:45.365Z,16.90
2018-06-22T09:56:47.330Z,16.98
2018-06-22T09:59:51.377Z,17.06
2018-06-22T10:02:53.520Z,17.58
2018-06-22T10:05:55.645Z,17.45
2018-06-22T10:09:00.947Z,17.45
2018-06-22T10:12:02.933Z,17.60
2018-06-22T10:15:05.348Z,17.99
2018-06-22T10:18:07.424Z,17.97
2018-06-22T10:21:09.531Z,17.74
2018-06-22T10:24:11.632Z,17.77
2018-06-22T10:27:13.795Z,17.68
2018-06-22T10:30:15.822Z,17.84
2018-06-22T10:33:19.766Z,17.49
2018-06-22T10:36:22.026Z,17.69
2018-06-22T10:39:24.251Z,18.01
2018-06-22T10:42:26.405Z,17.96
2018-06-22T10:45:28.531Z,17.81
2018-06-22T10:48:30.504Z,17.91
2018-06-22T10:51:32.631Z,18.02
2018-06-22T10:54:35.718Z,18.21
2018-06-22T10:57:37.734Z,18.13
2018-06-22T11:00:39.816Z,18.43
2018-06-22T11:03:41.892Z,18.73
2018-06-22T11:06:43.953Z,18.57
2018-06-22T11:09:46.015Z,18.48
2018-06-22T11:12:48.176Z,18.43
2018-06-22T11:15:50.164Z,18.54
2018-06-22T11:18:52.251Z,18.46
2018-06-22T11:21:54.404Z,18.33
2018-06-22T11:24:56.510Z,19.09
2018-06-22T11:27:58.723Z,19.58
2018-06-22T11:31:00.754Z,19.58
2018-06-22T11:34:05.277Z,19.48
2018-06-22T11:37:07.267Z,19.68
2018-06-22T11:40:09.241Z,19.88
2018-06-22T11:43:11.344Z,19.85
2018-06-22T11:46:13.391Z,19.91
2018-06-22T11:49:15.455Z,19.73
2018-06-22T11:52:17.639Z,19.34
2018-06-22T11:55:19.691Z,19.55
2018-06-22T11:58:21.641Z,19.74
2018-06-22T12:01:23.726Z,20.17
2018-06-22T12:04:25.850Z,20.01
2018-06-22T12:07:27.936Z,19.79
2018-06-22T12:10:30.049Z,19.83
2018-06-22T12:13:32.136Z,20.00
2018-06-22T12:16:34.384Z,19.88
2018-06-22T12:19:36.695Z,19.80
2018-06-22T12:22:38.827Z,19.92
2018-06-22T12:25:40.929Z,19.96
2018-06-22T12:28:42.952Z,19.66
2018-06-22T12:31:45.215Z,19.43
2018-06-22T12:34:47.179Z,19.70
2018-06-22T12:37:50.408Z,19.70
2018-06-22T12:40:53.484Z,19.62
2018-06-22T12:43:55.585Z,19.51
2018-06-22T12:46:57.793Z,19.16
2018-06-22T12:49:59.954Z,19.47
2018-06-22T12:53:02.140Z,19.65
2018-06-22T12:56:04.483Z,19.60
2018-06-22T12:59:15.678Z,19.46
2018-06-22T13:02:18.032Z,19.44
2018-06-22T13:05:20.060Z,19.77
2018-06-22T13:08:22.126Z,19.78
2018-06-22T13:11:24.208Z,19.54
2018-06-22T13:14:26.207Z,19.20
2018-06-22T13:17:28.232Z,19.80
2018-06-22T13:20:30.327Z,19.97
2018-06-22T13:23:32.372Z,19.87
2018-06-22T13:26:34.456Z,19.52
2018-06-22T13:29:37.751Z,19.73
2018-06-22T13:32:39.852Z,20.16
2018-06-22T13:35:41.890Z,20.29
2018-06-22T13:38:44.072Z,20.67
2018-06-22T13:41:46.799Z,20.65
2018-06-22T13:44:48.838Z,20.16
2018-06-22T13:47:51.098Z,20.45
2018-06-22T13:50:53.227Z,20.85
2018-06-22T13:53:55.249Z,21.26
2018-06-22T13:56:57.584Z,21.35
2018-06-22T13:59:59.576Z,21.38
2018-06-22T14:03:02.488Z,21.11
2018-06-22T14:06:10.487Z,20.65
2018-06-22T14:09:14.545Z,20.32
2018-06-22T14:12:16.568Z,20.17
2018-06-22T14:15:18.855Z,20.44
2018-06-22T14:18:21.948Z,20.21
2018-06-22T14:21:24.034Z,20.10
2018-06-22T14:24:27.093Z,20.04
2018-06-22T14:27:29.200Z,20.01
2018-06-22T14:30:31.166Z,19.90
2018-06-22T14:33:33.433Z,19.88
2018-06-22T14:36:35.405Z,19.72
2018-06-22T14:39:37.774Z,19.72
2018-06-22T14:42:39.804Z,19.69
2018-06-22T14:45:41.966Z,19.45
2018-06-22T14:48:44.035Z,19.54
2018-06-22T14:51:46.149Z,19.70
2018-06-22T14:54:58.319Z,19.84
2018-06-22T14:58:06.160Z,20.21
2018-06-22T15:02:16.798Z,20.23
2018-06-22T15:05:24.621Z,20.15
2018-06-22T15:08:26.658Z,19.64
2018-06-22T15:11:28.733Z,19.79
2018-06-22T15:14:30.816Z,20.04
2018-06-22T15:18:05.022Z,20.05
2018-06-22T15:21:08.221Z,19.97
2018-06-22T15:24:10.285Z,20.26
2018-06-22T15:27:12.243Z,19.61
2018-06-22T15:30:14.330Z,19.66
2018-06-22T15:33:22.119Z,19.64
2018-06-22T15:36:30.102Z,19.51
2018-06-22T15:39:37.813Z,19.38
2018-06-22T15:42:45.502Z,19.30
2018-06-22T15:45:53.392Z,19.25
2018-06-22T15:49:01.055Z,19.25
2018-06-22T15:52:08.827Z,19.15
2018-06-22T15:55:16.622Z,19.35
2018-06-22T15:58:18.600Z,19.39
2018-06-22T16:01:20.705Z,19.42
2018-06-22T16:04:22.721Z,19.62
2018-06-22T16:07:24.815Z,19.71
2018-06-22T16:10:26.909Z,19.48
2018-06-22T16:13:28.991Z,19.49
2018-06-22T16:16:36.753Z,19.48
2018-06-22T16:19:44.436Z,19.65
2018-06-22T16:23:56.570Z,19.80
2018-06-22T16:27:04.167Z,19.65
2018-06-22T16:30:07.672Z,19.59
2018-06-22T16:33:09.738Z,19.46
2018-06-22T16:36:11.807Z,19.49
2018-06-22T16:39:14.335Z,19.63
2018-06-22T16:42:16.359Z,19.54
2018-06-22T16:45:18.679Z,19.42
2018-06-22T16:48:20.775Z,19.41
2018-06-22T16:51:23.259Z,19.43
2018-06-22T16:54:25.376Z,19.56
2018-06-22T16:57:27.907Z,19.77
2018-06-22T17:00:29.983Z,19.99
2018-06-22T17:03:32.064Z,20.30
2018-06-22T17:06:39.972Z,20.33
2018-06-22T17:09:48.002Z,20.30
2018-06-22T17:13:58.619Z,19.88
2018-06-22T17:17:06.377Z,19.50
2018-06-22T17:20:09.163Z,19.20
2018-06-22T17:23:11.232Z,19.03
2018-06-22T17:26:13.439Z,19.13
2018-06-22T17:29:15.590Z,18.99
2018-06-22T17:32:17.739Z,19.13
2018-06-22T17:35:20.803Z,19.22
2018-06-22T17:38:22.911Z,19.17
2018-06-22T17:41:24.955Z,19.19
2018-06-22T17:44:27.110Z,19.37
2018-06-22T17:47:29.203Z,19.47
2018-06-22T17:50:31.522Z,19.57
2018-06-22T17:53:33.533Z,19.58
2018-06-22T17:56:35.668Z,19.47
2018-06-22T17:59:43.471Z,19.31
2018-06-22T18:02:51.439Z,19.20
2018-06-22T18:05:59.375Z,19.29
2018-06-22T18:09:01.516Z,19.28
2018-06-22T18:12:09.988Z,19.31
2018-06-22T18:15:12.089Z,19.19
2018-06-22T18:18:14.125Z,19.19
2018-06-22T18:21:16.217Z,19.25
2018-06-22T18:24:18.314Z,19.13
2018-06-22T18:27:20.335Z,19.14
2018-06-22T18:30:22.540Z,19.13
2018-06-22T18:33:24.628Z,19.12
2018-06-22T18:36:26.704Z,18.89
2018-06-22T18:39:28.865Z,18.72
2018-06-22T18:42:30.972Z,18.77
2018-06-22T18:45:33.083Z,18.57
2018-06-22T18:48:35.145Z,18.50
2018-06-22T18:51:37.349Z,18.38
2018-06-22T18:54:45.212Z,18.31
2018-06-22T18:57:53.516Z,18.21
2018-06-22T19:01:01.372Z,18.16
2018-06-22T19:04:03.617Z,18.17
2018-06-22T19:07:05.810Z,18.12
2018-06-22T19:10:07.858Z,17.99
2018-06-22T19:13:10.710Z,17.94
2018-06-22T19:16:12.880Z,17.83
2018-06-22T19:19:14.981Z,17.79
2018-06-22T19:22:17.028Z,17.70
2018-06-22T19:25:20.167Z,17.57
2018-06-22T19:28:22.212Z,17.47
2018-06-22T19:31:24.760Z,17.38
2018-06-22T19:34:32.720Z,17.32
2018-06-22T19:37:34.789Z,17.27
2018-06-22T19:40:36.935Z,17.26
2018-06-22T19:43:44.555Z,17.28
2018-06-22T19:46:52.572Z,17.27
2018-06-22T19:50:00.235Z,17.14
2018-06-22T19:53:08.024Z,17.05
2018-06-22T19:56:11.247Z,17.02
2018-06-22T19:59:13.331Z,17.05
2018-06-22T20:02:15.458Z,17.05
2018-06-22T20:05:17.527Z,17.02
2018-06-22T20:08:19.612Z,16.93
2018-06-22T20:11:21.679Z,16.87
2018-06-22T20:14:24.218Z,16.94
2018-06-22T20:17:26.500Z,17.00
2018-06-22T20:20:28.588Z,16.99
2018-06-22T20:23:30.658Z,17.00
2018-06-22T20:26:32.868Z,17.01
2018-06-22T20:29:34.985Z,16.98
2018-06-22T20:32:37.104Z,16.93
2018-06-22T20:35:45.984Z,16.98
2018-06-22T20:38:53.926Z,16.98
2018-06-22T20:42:01.716Z,16.99
2018-06-22T20:45:10.874Z,16.95
2018-06-22T20:48:18.810Z,16.94
2018-06-22T20:51:20.844Z,16.90
2018-06-22T20:54:23.284Z,16.87
2018-06-22T20:57:26.543Z,16.81
2018-06-22T21:00:28.623Z,16.81
2018-06-22T21:03:30.742Z,16.73
2018-06-22T21:06:32.944Z,16.73
2018-06-22T21:09:34.965Z,16.67
2018-06-22T21:12:40.407Z,16.49
2018-06-22T21:15:39.225Z,16.45
2018-06-22T21:18:41.291Z,16.39
2018-06-22T21:21:49.230Z,16.17
2018-06-22T21:24:51.326Z,15.94
2018-06-22T21:27:59.422Z,15.68
2018-06-22T21:31:08.918Z,15.58
2018-06-22T21:34:18.763Z,15.48
2018-06-22T21:37:26.678Z,15.32
2018-06-22T21:40:28.736Z,15.27
2018-06-22T21:43:30.794Z,14.98
2018-06-22T21:46:32.861Z,14.79
2018-06-22T21:49:34.934Z,14.76
2018-06-22T21:52:37.003Z,14.86
2018-06-22T21:55:39.097Z,14.85
2018-06-22T21:58:41.024Z,14.99
2018-06-22T22:01:43.170Z,15.15
2018-06-22T22:04:45.301Z,15.13
2018-06-22T22:07:47.529Z,15.19
2018-06-22T22:10:55.415Z,15.26
2018-06-22T22:13:57.678Z,15.31
2018-06-22T22:16:59.795Z,15.37
2018-06-22T22:20:01.870Z,15.40
2018-06-22T22:23:04.206Z,15.33
2018-06-22T22:26:06.326Z,15.35
2018-06-22T22:29:09.039Z,15.27
2018-06-22T22:32:11.003Z,15.33
2018-06-22T22:35:13.061Z,15.36
2018-06-22T22:38:15.234Z,15.27
2018-06-22T22:41:17.317Z,15.28
2018-06-22T22:44:19.456Z,15.36
2018-06-22T22:47:21.626Z,15.32
2018-06-22T22:50:23.680Z,15.18
2018-06-22T22:53:26.568Z,15.01
2018-06-22T22:56:28.655Z,15.01
2018-06-22T22:59:30.700Z,14.96
2018-06-22T23:02:32.804Z,14.77
2018-06-22T23:05:34.940Z,14.54
2018-06-22T23:08:37.021Z,14.59
2018-06-22T23:11:39.107Z,14.39
2018-06-22T23:14:41.159Z,14.17
2018-06-22T23:17:43.244Z,14.15
2018-06-22T23:20:45.415Z,14.04
2018-06-22T23:23:47.456Z,13.91
2018-06-22T23:26:49.545Z,13.71
2018-06-22T23:29:51.586Z,13.60
2018-06-22T23:32:53.626Z,13.70
2018-06-22T23:35:56.388Z,13.86
2018-06-22T23:38:58.411Z,14.02
2018-06-22T23:42:00.407Z,14.03
2018-06-22T23:45:02.447Z,14.04
2018-06-22T23:48:04.544Z,14.12
2018-06-22T23:51:06.587Z,14.14
2018-06-22T23:54:08.655Z,14.15
2018-06-22T23:57:10.788Z,14.11
